createdAt,value
2018-09-04T00:01:09.257Z,17.92
2018-09-04T00:03:39.426Z,17.90
2018-09-04T00:06:09.531Z,17.91
2018-09-04T00:08:39.581Z,17.94
2018-09-04T00:11:09.634Z,17.65
2018-09-04T00:13:51.182Z,17.47
2018-09-04T00:16:21.410Z,17.53
2018-09-04T00:18:51.411Z,17.59
2018-09-04T00:21:21.457Z,17.77
2018-09-04T00:23:51.445Z,17.68
2018-09-04T00:26:21.511Z,17.43
2018-09-04T00:28:51.395Z,17.43
2018-09-04T00:31:21.467Z,17.32
2018-09-04T00:34:01.988Z,17.44
2018-09-04T00:36:38.679Z,17.68
2018-09-04T00:39:14.285Z,17.43
2018-09-04T00:41:48.657Z,17.52
2018-09-04T00:44:42.069Z,17.57
2018-09-04T00:47:19.664Z,17.60
2018-09-04T00:49:49.544Z,17.74
2018-09-04T00:52:19.831Z,17.31
2018-09-04T00:54:50.832Z,16.79
2018-09-04T00:57:20.911Z,17.01
2018-09-04T00:59:50.833Z,17.02
2018-09-04T01:02:34.782Z,17.03
2018-09-04T01:05:04.693Z,16.86
2018-09-04T01:07:34.542Z,17.01
2018-09-04T01:10:04.864Z,17.28
2018-09-04T01:12:35.214Z,17.44
2018-09-04T01:15:06.128Z,17.40
2018-09-04T01:20:45.745Z,17.01
2018-09-04T01:23:25.594Z,17.01
2018-09-04T01:26:19.436Z,16.88
2018-09-04T01:28:49.653Z,16.95
2018-09-04T01:31:27.839Z,16.83
2018-09-04T01:37:08.724Z,16.72
2018-09-04T01:46:05.988Z,16.40
2018-09-04T01:49:03.782Z,16.62
2018-09-04T01:51:33.702Z,16.69
2018-09-04T01:57:03.013Z,17.18
2018-09-04T02:02:32.917Z,16.63
2018-09-04T02:05:03.216Z,16.93
2018-09-04T02:07:33.327Z,17.17
2018-09-04T02:10:03.553Z,16.80
2018-09-04T02:18:43.613Z,16.93
2018-09-04T02:21:13.458Z,16.94
2018-09-04T02:23:43.308Z,16.95
2018-09-04T02:26:13.686Z,16.98
2018-09-04T02:28:56.994Z,16.87
2018-09-04T02:31:27.673Z,16.92
2018-09-04T02:33:58.005Z,17.08
2018-09-04T02:39:56.761Z,17.33
2018-09-04T02:42:27.016Z,16.87
2018-09-04T02:45:05.211Z,16.82
2018-09-04T02:47:37.394Z,16.95
2018-09-04T02:50:08.026Z,16.90
2018-09-04T02:52:54.286Z,16.73
2018-09-04T02:55:42.384Z,16.80
2018-09-04T02:58:12.305Z,16.76
2018-09-04T03:00:42.175Z,16.89
2018-09-04T03:03:24.416Z,17.10
2018-09-04T03:05:54.122Z,17.25
2018-09-04T03:11:28.861Z,16.80
2018-09-04T03:14:20.606Z,16.84
2018-09-04T03:16:50.645Z,16.74
2018-09-04T03:28:51.309Z,16.92
2018-09-04T03:31:22.934Z,17.05
2018-09-04T03:33:53.232Z,17.08
2018-09-04T03:39:34.121Z,16.95
2018-09-04T03:42:04.457Z,16.61
2018-09-04T03:44:34.542Z,16.62
2018-09-04T03:47:28.423Z,16.78
2018-09-04T03:49:58.393Z,16.95
2018-09-04T03:55:44.864Z,16.90
2018-09-04T03:58:41.614Z,16.82
2018-09-04T04:01:40.193Z,16.57
2018-09-04T04:04:10.383Z,16.65
2018-09-04T04:06:40.215Z,16.46
2018-09-04T04:09:11.918Z,16.53
2018-09-04T04:11:42.053Z,16.63
2018-09-04T04:17:34.703Z,16.20
2018-09-04T04:20:34.266Z,16.20
2018-09-04T04:23:18.720Z,16.40
2018-09-04T04:25:48.895Z,16.46
2018-09-04T04:28:19.249Z,16.44
2018-09-04T04:30:53.201Z,16.17
2018-09-04T04:33:23.443Z,16.29
2018-09-04T04:39:10.938Z,16.33
2018-09-04T04:41:59.349Z,16.19
2018-09-04T04:44:41.512Z,15.87
2018-09-04T04:59:51.220Z,16.41
2018-09-04T05:08:40.897Z,16.27
2018-09-04T05:11:11.109Z,16.17
2018-09-04T05:13:40.859Z,16.04
2018-09-04T05:16:11.239Z,16.07
2018-09-04T05:18:41.401Z,15.65
2018-09-04T05:21:17.142Z,15.85
2018-09-04T05:23:47.228Z,15.91
2018-09-04T05:26:39.281Z,15.81
2018-09-04T05:32:09.287Z,15.94
2018-09-04T05:34:39.751Z,16.24
2018-09-04T05:37:10.093Z,16.34
2018-09-04T05:39:41.153Z,16.41
2018-09-04T05:45:41.819Z,15.86
2018-09-04T05:48:13.956Z,15.89
2018-09-04T05:50:55.508Z,15.86
2018-09-04T05:53:25.716Z,15.78
2018-09-04T05:55:55.903Z,15.75
2018-09-04T05:58:26.136Z,16.03
2018-09-04T06:01:03.080Z,16.17
2018-09-04T06:03:48.710Z,16.22
2018-09-04T06:06:18.563Z,16.31
2018-09-04T06:08:49.008Z,16.40
2018-09-04T06:11:18.897Z,16.37
2018-09-04T06:23:09.276Z,16.40
2018-09-04T06:28:38.621Z,16.58
2018-09-04T06:31:10.581Z,16.64
2018-09-04T06:33:40.702Z,16.67
2018-09-04T06:36:10.498Z,16.65
2018-09-04T06:38:40.469Z,16.62
2018-09-04T06:41:10.432Z,16.64
2018-09-04T06:43:40.288Z,16.73
2018-09-04T06:46:10.176Z,16.76
2018-09-04T06:48:40.181Z,16.73
2018-09-04T06:54:26.386Z,16.83
2018-09-04T06:57:21.910Z,16.84
2018-09-04T07:02:51.301Z,16.85
2018-09-04T07:05:24.769Z,16.88
2018-09-04T07:07:54.999Z,16.94
2018-09-04T07:10:24.830Z,16.94
2018-09-04T07:13:04.129Z,16.95
2018-09-04T07:15:34.382Z,17.03
2018-09-04T07:18:09.633Z,17.07
2018-09-04T07:20:39.681Z,17.12
2018-09-04T07:23:10.048Z,17.14
2018-09-04T07:25:40.024Z,17.22
2018-09-04T07:28:10.325Z,17.31
2018-09-04T07:30:40.586Z,17.28
2018-09-04T07:33:11.137Z,17.32
2018-09-04T07:35:41.632Z,17.35
2018-09-04T07:38:11.719Z,17.41
2018-09-04T07:40:42.155Z,17.46
2018-09-04T07:43:12.408Z,17.52
2018-09-04T07:45:42.949Z,17.58
2018-09-04T07:48:13.172Z,17.61
2018-09-04T07:50:43.548Z,17.88
2018-09-04T07:53:13.619Z,17.84
2018-09-04T07:56:02.774Z,17.91
2018-09-04T07:58:33.776Z,17.93
2018-09-04T08:01:04.653Z,17.94
2018-09-04T08:03:35.465Z,17.95
2018-09-04T08:06:05.347Z,17.98
2018-09-04T08:08:35.490Z,18.04
2018-09-04T08:11:06.484Z,18.04
2018-09-04T08:13:36.316Z,18.33
2018-09-04T08:16:06.468Z,18.30
2018-09-04T08:21:46.842Z,18.72
2018-09-04T08:24:16.631Z,18.65
2018-09-04T08:26:46.612Z,18.73
2018-09-04T08:29:16.946Z,18.84
2018-09-04T08:34:47.566Z,18.69
2018-09-04T08:37:17.856Z,19.00
2018-09-04T08:39:49.550Z,18.94
2018-09-04T08:42:19.737Z,18.97
2018-09-04T08:44:50.980Z,19.00
2018-09-04T08:47:21.472Z,19.35
2018-09-04T08:49:54.600Z,19.22
2018-09-04T08:52:24.401Z,19.18
2018-09-04T08:54:54.567Z,19.21
2018-09-04T08:57:24.607Z,19.26
2018-09-04T08:59:55.012Z,19.56
2018-09-04T09:02:24.982Z,19.64
2018-09-04T09:04:56.176Z,19.56
2018-09-04T09:07:26.484Z,19.52
2018-09-04T09:09:56.693Z,19.80
2018-09-04T09:12:26.869Z,19.75
2018-09-04T09:14:56.994Z,19.92
2018-09-04T09:17:27.225Z,19.93
2018-09-04T09:23:03.403Z,20.04
2018-09-04T09:25:33.597Z,19.85
2018-09-04T09:28:10.970Z,20.26
2018-09-04T09:30:41.042Z,20.22
2018-09-04T09:33:12.104Z,20.49
2018-09-04T09:41:53.526Z,20.43
2018-09-04T09:44:23.327Z,20.47
2018-09-04T09:46:57.656Z,20.70
2018-09-04T09:49:39.637Z,20.89
2018-09-04T09:52:09.947Z,20.72
2018-09-04T09:54:40.227Z,20.90
2018-09-04T09:57:19.443Z,20.90
2018-09-04T09:59:50.297Z,20.94
2018-09-04T10:02:22.415Z,21.22
2018-09-04T10:04:52.635Z,21.20
2018-09-04T10:07:22.583Z,21.02
2018-09-04T10:09:52.597Z,20.98
2018-09-04T10:12:44.696Z,21.28
2018-09-04T10:15:14.981Z,21.25
2018-09-04T10:17:45.360Z,21.39
2018-09-04T10:23:15.913Z,21.49
2018-09-04T10:32:08.886Z,21.61
2018-09-04T10:37:49.729Z,21.62
2018-09-04T10:41:01.385Z,21.79
2018-09-04T10:46:41.540Z,22.15
2018-09-04T10:49:11.822Z,22.56
2018-09-04T10:51:41.799Z,22.52
2018-09-04T10:54:15.398Z,22.49
2018-09-04T11:02:41.496Z,22.72
2018-09-04T11:05:12.087Z,22.71
2018-09-04T11:07:42.815Z,22.63
2018-09-04T11:10:13.104Z,22.79
2018-09-04T11:12:43.286Z,23.01
2018-09-04T11:15:13.393Z,23.04
2018-09-04T11:17:43.512Z,22.92
2018-09-04T11:20:13.541Z,22.92
2018-09-04T11:25:27.561Z,23.57
2018-09-04T11:28:28.798Z,23.33
2018-09-04T11:34:09.080Z,23.51
2018-09-04T11:39:47.704Z,23.85
2018-09-04T11:44:56.374Z,24.10
2018-09-04T11:47:51.141Z,23.94
2018-09-04T11:50:21.281Z,24.05
2018-09-04T11:52:51.965Z,24.14
2018-09-04T11:55:23.744Z,24.19
2018-09-04T11:57:53.936Z,24.27
2018-09-04T12:00:40.970Z,24.42
2018-09-04T12:03:16.412Z,24.47
2018-09-04T12:05:46.725Z,24.39
2018-09-04T12:08:31.563Z,24.17
2018-09-04T12:11:11.742Z,24.27
2018-09-04T12:13:42.000Z,23.97
2018-09-04T12:16:15.201Z,24.05
2018-09-04T12:18:45.272Z,24.07
2018-09-04T12:21:26.296Z,23.98
2018-09-04T12:23:56.177Z,24.00
2018-09-04T12:26:26.301Z,24.29
2018-09-04T12:28:56.136Z,24.06
2018-09-04T12:31:26.571Z,24.17
2018-09-04T12:33:57.274Z,24.07
2018-09-04T12:36:27.397Z,24.24
2018-09-04T12:39:05.866Z,24.31
2018-09-04T12:41:36.061Z,24.49
2018-09-04T12:44:06.201Z,24.59
2018-09-04T12:46:36.390Z,24.59
2018-09-04T12:49:06.260Z,24.57
2018-09-04T12:51:42.328Z,24.65
2018-09-04T12:54:16.266Z,24.47
2018-09-04T12:56:46.436Z,24.56
2018-09-04T12:59:16.639Z,24.62
2018-09-04T13:01:48.052Z,24.43
2018-09-04T13:04:18.580Z,24.43
2018-09-04T13:06:49.513Z,24.45
2018-09-04T13:09:24.937Z,24.58
2018-09-04T13:11:55.042Z,25.01
2018-09-04T13:14:25.826Z,24.66
2018-09-04T13:16:55.731Z,24.80
2018-09-04T13:19:25.588Z,24.81
2018-09-04T13:28:02.526Z,25.29
2018-09-04T13:30:32.925Z,25.44
2018-09-04T13:33:03.063Z,25.55
2018-09-04T13:35:39.137Z,25.30
2018-09-04T13:38:13.288Z,25.36
2018-09-04T13:40:43.566Z,25.48
2018-09-04T13:43:13.648Z,25.89
2018-09-04T13:45:51.090Z,25.61
2018-09-04T13:51:31.554Z,25.52
2018-09-04T13:54:01.606Z,25.58
2018-09-04T13:56:31.895Z,25.66
2018-09-04T13:59:01.994Z,25.56
2018-09-04T14:07:31.971Z,25.51
2018-09-04T14:10:08.559Z,25.58
2018-09-04T14:15:49.518Z,25.60
2018-09-04T14:18:19.935Z,25.98
2018-09-04T14:21:14.388Z,25.96
2018-09-04T14:23:45.102Z,25.73
2018-09-04T14:26:15.288Z,25.71
2018-09-04T14:31:57.594Z,25.49
2018-09-04T14:34:27.926Z,25.44
2018-09-04T14:43:18.927Z,25.34
2018-09-04T14:45:49.688Z,25.30
2018-09-04T14:48:19.868Z,25.26
2018-09-04T14:50:49.836Z,25.20
2018-09-04T14:53:19.937Z,25.21
2018-09-04T14:55:50.634Z,25.22
2018-09-04T14:58:21.353Z,25.19
2018-09-04T15:00:51.730Z,25.17
2018-09-04T15:03:22.545Z,25.22
2018-09-04T15:12:02.133Z,25.30
2018-09-04T15:14:32.578Z,25.31
2018-09-04T15:17:02.743Z,25.28
2018-09-04T15:22:55.079Z,25.41
2018-09-04T15:25:25.438Z,25.24
2018-09-04T15:34:39.693Z,25.27
2018-09-04T15:37:09.677Z,25.45
2018-09-04T15:39:39.628Z,25.37
2018-09-04T15:42:09.427Z,25.16
2018-09-04T15:44:39.417Z,25.21
2018-09-04T15:47:09.401Z,25.10
2018-09-04T15:49:49.674Z,25.05
2018-09-04T15:56:04.882Z,24.98
2018-09-04T16:01:29.735Z,24.11
2018-09-04T16:03:59.708Z,24.44
2018-09-04T16:06:29.569Z,24.66
2018-09-04T16:08:59.623Z,24.71
2018-09-04T16:11:38.470Z,24.61
2018-09-04T16:14:09.236Z,24.45
2018-09-04T16:16:53.497Z,24.05
2018-09-04T16:19:23.981Z,24.11
2018-09-04T16:21:53.762Z,24.18
2018-09-04T16:24:24.125Z,24.44
2018-09-04T16:26:54.467Z,24.52
2018-09-04T16:31:58.856Z,24.54
2018-09-04T16:37:28.807Z,24.43
2018-09-04T16:40:06.365Z,24.23
2018-09-04T16:42:36.401Z,23.93
2018-09-04T16:45:06.555Z,23.12
2018-09-04T16:47:36.585Z,23.02
2018-09-04T16:50:10.238Z,23.36
2018-09-04T16:52:41.286Z,23.84
2018-09-04T16:55:11.198Z,23.93
2018-09-04T16:57:48.186Z,24.06
2018-09-04T17:00:18.040Z,24.08
2018-09-04T17:02:48.116Z,24.10
2018-09-04T17:05:18.100Z,24.11
2018-09-04T17:10:43.695Z,24.09
2018-09-04T17:13:13.723Z,24.08
2018-09-04T17:15:44.040Z,23.98
2018-09-04T17:18:13.960Z,23.60
2018-09-04T17:20:43.887Z,23.68
2018-09-04T17:23:18.200Z,23.41
2018-09-04T17:25:48.263Z,23.52
2018-09-04T17:31:21.145Z,23.67
2018-09-04T17:33:51.530Z,23.67
2018-09-04T17:36:21.693Z,23.43
2018-09-04T17:38:51.688Z,23.46
2018-09-04T17:41:27.128Z,23.56
2018-09-04T17:43:57.941Z,23.56
2018-09-04T17:46:31.384Z,23.02
2018-09-04T17:49:01.346Z,22.82
2018-09-04T17:51:31.292Z,22.54
2018-09-04T17:54:01.191Z,22.75
2018-09-04T17:56:44.557Z,22.77
2018-09-04T17:59:14.899Z,23.07
2018-09-04T18:01:44.816Z,23.10
2018-09-04T18:04:19.326Z,23.23
2018-09-04T18:06:50.881Z,23.24
2018-09-04T18:09:20.808Z,23.34
2018-09-04T18:12:05.213Z,23.39
2018-09-04T18:15:01.148Z,23.29
2018-09-04T18:17:31.182Z,23.33
2018-09-04T18:22:56.529Z,23.30
2018-09-04T18:25:26.473Z,22.96
2018-09-04T18:27:56.822Z,22.65
2018-09-04T18:30:44.845Z,22.60
2018-09-04T18:33:15.026Z,22.29
2018-09-04T18:35:45.493Z,22.41
2018-09-04T18:38:15.403Z,22.50
2018-09-04T18:40:45.339Z,22.47
2018-09-04T18:43:15.121Z,22.35
2018-09-04T18:45:52.383Z,22.68
2018-09-04T18:48:22.241Z,22.86
2018-09-04T18:50:52.221Z,22.91
2018-09-04T18:53:22.053Z,22.96
2018-09-04T18:55:51.945Z,22.94
2018-09-04T18:58:23.070Z,22.91
2018-09-04T19:00:52.885Z,22.89
2018-09-04T19:03:23.125Z,22.79
2018-09-04T19:05:52.925Z,22.43
2018-09-04T19:08:24.812Z,22.03
2018-09-04T19:10:55.251Z,21.83
2018-09-04T19:13:28.763Z,21.70
2018-09-04T19:15:58.897Z,21.82
2018-09-04T19:18:37.907Z,21.92
2018-09-04T19:21:08.973Z,21.94
2018-09-04T19:23:41.069Z,22.21
2018-09-04T19:26:11.147Z,22.39
2018-09-04T19:28:41.712Z,22.42
2018-09-04T19:31:11.630Z,22.38
2018-09-04T19:33:41.440Z,22.20
2018-09-04T19:36:11.379Z,21.98
2018-09-04T19:38:41.341Z,21.72
2018-09-04T19:41:11.315Z,21.45
2018-09-04T19:43:41.276Z,21.40
2018-09-04T19:46:11.281Z,21.48
2018-09-04T19:48:41.143Z,21.92
2018-09-04T19:51:11.111Z,22.13
2018-09-04T19:53:41.623Z,22.21
2018-09-04T19:56:11.432Z,22.20
2018-09-04T19:58:41.308Z,21.85
2018-09-04T20:01:11.926Z,21.83
2018-09-04T20:03:41.740Z,21.52
2018-09-04T20:06:11.911Z,21.35
2018-09-04T20:08:42.527Z,21.69
2018-09-04T20:11:12.428Z,21.78
2018-09-04T20:13:42.708Z,21.91
2018-09-04T20:16:12.479Z,21.97
2018-09-04T20:18:44.872Z,22.00
2018-09-04T20:21:15.838Z,21.99
2018-09-04T20:23:45.784Z,21.76
2018-09-04T20:26:15.756Z,21.76
2018-09-04T20:28:45.835Z,21.86
2018-09-04T20:31:15.655Z,21.93
2018-09-04T20:33:46.531Z,21.98
2018-09-04T20:36:16.518Z,21.98
2018-09-04T20:38:46.556Z,21.82
2018-09-04T20:41:16.496Z,21.85
2018-09-04T20:43:46.631Z,21.88
2018-09-04T20:46:16.642Z,21.47
2018-09-04T20:48:46.620Z,21.55
2018-09-04T20:51:16.491Z,21.74
2018-09-04T20:53:46.625Z,21.43
2018-09-04T20:56:20.796Z,21.38
2018-09-04T20:59:07.154Z,21.56
2018-09-04T21:05:03.764Z,21.68
2018-09-04T21:08:56.451Z,21.73
2018-09-04T21:11:26.414Z,21.76
2018-09-04T21:13:57.314Z,21.80
2018-09-04T21:16:27.336Z,21.77
2018-09-04T21:25:16.499Z,21.36
2018-09-04T21:27:46.487Z,21.54
2018-09-04T21:30:16.532Z,21.60
2018-09-04T21:32:47.302Z,21.59
2018-09-04T21:35:17.335Z,21.54
2018-09-04T21:37:58.551Z,21.35
2018-09-04T21:43:40.518Z,21.49
2018-09-04T21:46:10.622Z,21.27
2018-09-04T21:48:40.753Z,20.84
2018-09-04T21:54:20.109Z,20.73
2018-09-04T21:56:50.486Z,20.99
2018-09-04T21:59:38.668Z,21.15
2018-09-04T22:02:09.174Z,21.24
2018-09-04T22:04:39.500Z,21.35
2018-09-04T22:07:37.835Z,21.39
2018-09-04T22:13:08.602Z,21.16
2018-09-04T22:15:38.601Z,21.05
2018-09-04T22:18:08.704Z,20.95
2018-09-04T22:20:39.197Z,21.08
2018-09-04T22:23:11.005Z,21.21
2018-09-04T22:25:41.360Z,21.16
2018-09-04T22:28:11.529Z,20.79
2018-09-04T22:31:07.255Z,20.94
2018-09-04T22:33:37.359Z,20.96
2018-09-04T22:39:18.068Z,20.79
2018-09-04T22:41:47.992Z,20.68
2018-09-04T22:44:18.060Z,20.91
2018-09-04T22:46:48.793Z,20.82
2018-09-04T22:49:18.740Z,20.91
2018-09-04T22:51:48.781Z,20.48
2018-09-04T22:54:22.114Z,20.70
2018-09-04T22:57:04.793Z,20.89
2018-09-04T22:59:34.779Z,20.94
2018-09-04T23:02:04.834Z,20.99
2018-09-04T23:04:34.844Z,21.02
2018-09-04T23:07:05.015Z,21.04
2018-09-04T23:09:35.034Z,20.99
2018-09-04T23:12:31.130Z,21.01
2018-09-04T23:18:03.585Z,20.75
2018-09-04T23:20:33.607Z,20.47
2018-09-04T23:26:13.277Z,20.43
2018-09-04T23:28:43.309Z,20.54
2018-09-04T23:31:13.568Z,20.71
2018-09-04T23:33:43.885Z,20.55
2018-09-04T23:36:14.192Z,20.23
2018-09-04T23:38:44.306Z,19.98
2018-09-04T23:41:14.810Z,19.83
2018-09-04T23:43:44.980Z,19.87
2018-09-04T23:46:14.979Z,19.86
2018-09-04T23:48:45.039Z,20.13
2018-09-04T23:51:15.208Z,20.32
2018-09-04T23:56:46.384Z,20.10
2018-09-04T23:59:16.635Z,19.81
